Saguaro Natl Park, Arizona
Current Conditions -  °F | °C
As of 10:58 AM on Wednesday 26 Nov 2014 (Local Time) from KDMA Reporting Station
Clear Clear  
Wind Chill: 58°   Ceiling: Unl
Heat Index: 58°   Visibility: 10mi
Dew Point:   Wind: 2mph
Humidity: 14%   Direction: 240°WSW
Pressure: 30.29"   Gusts: NA
Location:  32.2°N, 110.63°W
Report Text: KDMA 261758Z AUTO 24002KT 10SM CLR 14/M13 A3029 RMK AO2 SLP246 T01421134 10142 20037 58005 $
Loading
Personal Weather Stations






























Interactive Weather Map New forecast layout! Learn more

10-Day Weather Forecast

Advertisements
Track Severe Weather on mobile